Main page
METAR-TAF:

METAR-TAF

Airports :

RAF Marham

Marham, England

latitude: 52-39N, longitude: 000-34E, elevation: 23 m

Current weather observation

The report was made 1 hour and 3 minutes ago, at 22:50 UTC
Wind 12 kt from the West/Southwest
Temperature 7°C
Humidity 93%
Pressure 1004 hPa
Visibility 10 km or more
no clouds below 1500 m and no cumulonimbus

METAR: EGYM 282250Z 24012KT CAVOK 07/06 Q1004 BLU

Time: 23:53 (23:53 UTC)

Forecast

The report was made 10 hours and 57 minutes ago, at 12:56 UTC
Forecast valid from 28 at 12 UTC to 28 at 18 UTC
Wind 14 kt from the South/Southwest
Visibility 10 km or more
Few clouds at a height of 2000 ft
Probability 40% :
Temporary
from 28 at 12 UTC to 28 at 18 UTC
Wind 15 kt from the Southwest with gusts up to 25 kt
Visibility: 7000 m
Broken clouds at a height of 2000 ft, Cumulonimbus.
rain showers

TAF: EGYM 281256Z 2812/2818 21014KT 9999 FEW020 PROB40 TEMPO 2812/2818 22015G25KT 7000 SHRA BKN020CB

Weather observations and forecasts of more than 4000 airports (METAR and TAF reports).

The available stations are represented by yellow and red dots on the map.

Hover mouse over dot to see the name of the station.

Then click to see weather observations and forecasts.

To change the map : click on the green buttons with a black cross to zoom in, on the green button with a dash to zoom out, or on the green arrows for adjacent maps.


METAR-TAF: